createdAt,value
2023-03-16T00:00:20.919Z,16.98
2023-03-16T00:02:48.095Z,11.82
2023-03-16T00:05:15.212Z,15.95
2023-03-16T00:07:42.940Z,13.55
2023-03-16T00:10:12.680Z,13.40
2023-03-16T00:12:42.926Z,18.15
2023-03-16T00:15:11.507Z,22.70
2023-03-16T00:17:38.695Z,12.35
2023-03-16T00:20:06.953Z,13.63
2023-03-16T00:22:34.665Z,16.63
2023-03-16T00:25:02.037Z,15.98
2023-03-16T00:27:29.415Z,20.02
2023-03-16T00:29:57.052Z,15.05
2023-03-16T00:32:28.146Z,14.48
2023-03-16T00:34:55.829Z,18.40
2023-03-16T00:37:25.693Z,22.23
2023-03-16T00:39:57.436Z,15.48
2023-03-16T00:42:28.829Z,17.98
2023-03-16T00:45:01.363Z,20.58
2023-03-16T00:47:34.227Z,21.77
2023-03-16T00:50:02.091Z,19.13
2023-03-16T00:52:29.577Z,16.70
2023-03-16T00:54:58.156Z,15.48
2023-03-16T00:57:27.167Z,20.98
2023-03-16T00:59:54.343Z,19.00
2023-03-16T01:02:24.930Z,14.18
2023-03-16T01:04:53.909Z,15.80
2023-03-16T01:07:21.709Z,19.55
2023-03-16T01:09:48.990Z,16.40
2023-03-16T01:12:19.171Z,22.48
2023-03-16T01:14:47.313Z,17.58
2023-03-16T01:17:16.655Z,17.95
2023-03-16T01:19:45.146Z,14.75
2023-03-16T01:22:12.850Z,10.67
2023-03-16T01:24:41.214Z,18.58
2023-03-16T01:27:08.964Z,18.23
2023-03-16T01:29:37.160Z,14.95
2023-03-16T01:32:06.818Z,13.93
2023-03-16T01:34:34.684Z,18.98
2023-03-16T01:37:02.381Z,15.88
2023-03-16T01:39:37.772Z,14.88
2023-03-16T01:42:06.096Z,10.73
2023-03-16T01:44:54.570Z,13.80
2023-03-16T01:47:23.544Z,12.38
2023-03-16T01:49:55.371Z,13.77
2023-03-16T01:52:29.970Z,20.15
2023-03-16T01:55:03.678Z,18.40
2023-03-16T01:57:42.018Z,14.23
2023-03-16T02:00:22.864Z,16.92
2023-03-16T02:03:16.008Z,16.27
2023-03-16T02:06:11.077Z,25.65
2023-03-16T02:08:44.786Z,21.38
2023-03-16T02:11:17.433Z,26.13
2023-03-16T02:13:57.173Z,22.35
2023-03-16T02:16:24.523Z,27.33
2023-03-16T02:18:52.821Z,20.67
2023-03-16T02:21:37.597Z,23.83
2023-03-16T02:24:05.699Z,20.80
2023-03-16T02:26:55.782Z,28.13
2023-03-16T02:29:29.208Z,20.40
2023-03-16T02:31:59.404Z,25.33
2023-03-16T02:34:27.441Z,28.80
2023-03-16T02:36:55.688Z,24.02
2023-03-16T02:39:25.295Z,26.60
2023-03-16T02:41:52.756Z,30.67
2023-03-16T02:44:35.718Z,24.70
2023-03-16T02:47:12.649Z,17.92
2023-03-16T02:49:45.333Z,18.15
2023-03-16T02:52:12.998Z,17.73
2023-03-16T02:54:40.270Z,27.35
2023-03-16T02:57:09.361Z,27.42
2023-03-16T02:59:36.892Z,17.67
2023-03-16T03:02:04.262Z,14.85
2023-03-16T03:04:32.428Z,18.70
2023-03-16T03:07:04.207Z,13.90
2023-03-16T03:09:36.308Z,11.65
2023-03-16T03:12:04.184Z,13.60
2023-03-16T03:14:33.063Z,13.57
2023-03-16T03:17:00.214Z,15.53
2023-03-16T03:19:27.423Z,13.55
2023-03-16T03:21:56.144Z,17.58
2023-03-16T03:24:23.865Z,12.77
2023-03-16T03:26:51.607Z,14.90
2023-03-16T03:29:20.624Z,12.65
2023-03-16T03:31:47.900Z,11.57
2023-03-16T03:34:15.246Z,11.32
2023-03-16T03:36:42.490Z,10.10
2023-03-16T03:39:09.820Z,11.32
2023-03-16T03:41:37.652Z,16.45
2023-03-16T03:44:06.682Z,16.17
2023-03-16T03:46:35.337Z,18.50
2023-03-16T03:49:04.889Z,10.77
2023-03-16T03:51:34.719Z,11.43
2023-03-16T03:54:05.558Z,10.27
2023-03-16T03:56:38.732Z,10.48
2023-03-16T03:59:12.047Z,10.63
2023-03-16T04:02:13.109Z,10.13
2023-03-16T04:04:45.436Z,11.50
2023-03-16T04:07:14.015Z,10.75
2023-03-16T04:09:42.694Z,9.27
2023-03-16T04:12:18.662Z,7.55
2023-03-16T04:14:46.427Z,10.18
2023-03-16T04:17:14.961Z,13.13
2023-03-16T04:19:43.623Z,7.85
2023-03-16T04:22:14.728Z,7.07
2023-03-16T04:24:44.234Z,19.73
2023-03-16T04:27:13.124Z,14.98
2023-03-16T04:29:41.446Z,24.73
2023-03-16T04:32:10.931Z,21.50
2023-03-16T04:37:08.978Z,14.40
2023-03-16T04:39:38.860Z,14.52
2023-03-16T04:42:06.870Z,21.05
2023-03-16T04:44:34.121Z,44.35
2023-03-16T04:47:01.408Z,47.55
2023-03-16T04:49:36.967Z,34.00
2023-03-16T04:52:05.007Z,21.10
2023-03-16T04:54:32.913Z,14.40
2023-03-16T04:57:02.984Z,30.42
2023-03-16T04:59:39.174Z,15.95
2023-03-16T05:02:17.213Z,19.88
2023-03-16T05:04:44.424Z,17.95
2023-03-16T05:07:12.793Z,25.25
2023-03-16T05:09:43.557Z,20.27
2023-03-16T05:12:11.082Z,16.63
2023-03-16T05:14:39.341Z,21.05
2023-03-16T05:17:21.710Z,15.18
2023-03-16T05:19:49.556Z,18.85
2023-03-16T05:22:18.312Z,18.53
2023-03-16T05:25:13.337Z,14.00
2023-03-16T05:27:53.662Z,16.27
2023-03-16T05:30:28.863Z,21.90
2023-03-16T05:32:59.179Z,13.13
2023-03-16T05:35:28.412Z,13.75
2023-03-16T05:38:00.535Z,20.17
2023-03-16T05:40:29.202Z,16.73
2023-03-16T05:43:09.306Z,21.42
2023-03-16T05:45:43.013Z,15.40
2023-03-16T05:48:14.627Z,13.60
2023-03-16T05:50:46.560Z,15.35
2023-03-16T05:53:16.413Z,13.48
2023-03-16T05:55:44.089Z,9.50
2023-03-16T05:58:14.835Z,14.30
2023-03-16T06:00:44.409Z,15.25
2023-03-16T06:03:22.462Z,14.27
2023-03-16T06:05:50.554Z,12.27
2023-03-16T06:08:24.384Z,12.07
2023-03-16T06:10:52.733Z,8.70
2023-03-16T06:13:20.998Z,13.40
2023-03-16T06:15:49.555Z,9.10
2023-03-16T06:18:16.754Z,9.15
2023-03-16T06:20:46.635Z,14.13
2023-03-16T06:23:14.514Z,18.17
2023-03-16T06:25:42.519Z,11.77
2023-03-16T06:28:10.593Z,14.43
2023-03-16T06:30:37.840Z,21.38
2023-03-16T06:33:05.308Z,13.90
2023-03-16T06:35:33.257Z,17.88
2023-03-16T06:38:11.979Z,25.02
2023-03-16T06:40:53.340Z,22.02
2023-03-16T06:43:21.945Z,32.92
2023-03-16T06:45:50.404Z,60.40
2023-03-16T06:48:17.770Z,24.85
2023-03-16T06:50:46.252Z,21.10
2023-03-16T06:53:15.097Z,12.57
2023-03-16T06:55:42.695Z,12.02
2023-03-16T06:58:11.213Z,9.82
2023-03-16T07:00:38.556Z,6.82
2023-03-16T07:03:06.111Z,10.13
2023-03-16T07:05:34.782Z,16.67
2023-03-16T07:08:03.793Z,10.98
2023-03-16T07:10:32.119Z,18.17
2023-03-16T07:12:59.753Z,30.73
2023-03-16T07:15:27.262Z,12.85
2023-03-16T07:17:56.959Z,16.67
2023-03-16T07:20:26.509Z,8.40
2023-03-16T07:22:53.900Z,12.30
2023-03-16T07:25:21.310Z,9.35
2023-03-16T07:27:52.683Z,9.82
2023-03-16T07:30:26.067Z,19.05
2023-03-16T07:32:54.011Z,10.45
2023-03-16T07:35:23.624Z,10.07
2023-03-16T07:37:51.166Z,7.25
2023-03-16T07:40:20.209Z,6.85
2023-03-16T07:42:47.838Z,7.05
2023-03-16T07:45:25.569Z,10.23
2023-03-16T07:47:53.212Z,7.20
2023-03-16T07:50:44.014Z,4.95
2023-03-16T07:53:11.575Z,10.07
2023-03-16T07:55:42.896Z,7.28
2023-03-16T07:58:11.520Z,8.43
2023-03-16T08:00:42.155Z,10.13
2023-03-16T08:03:09.689Z,13.43
2023-03-16T08:05:37.083Z,12.18
2023-03-16T08:08:10.601Z,13.32
2023-03-16T08:10:38.954Z,7.32
2023-03-16T08:13:18.584Z,8.93
2023-03-16T08:15:48.947Z,5.85
2023-03-16T08:18:25.977Z,8.57
2023-03-16T08:20:54.653Z,7.15
2023-03-16T08:23:23.778Z,6.10
2023-03-16T08:28:25.265Z,13.40
2023-03-16T08:30:54.877Z,7.80
2023-03-16T08:33:38.098Z,11.02
2023-03-16T08:36:09.230Z,7.93
2023-03-16T08:38:37.218Z,11.70
2023-03-16T08:41:08.596Z,9.40
2023-03-16T08:43:37.171Z,10.60
2023-03-16T08:46:06.100Z,10.55
2023-03-16T08:48:45.144Z,12.65
2023-03-16T08:51:12.509Z,6.95
2023-03-16T08:53:39.757Z,6.38
2023-03-16T08:56:13.570Z,6.55
2023-03-16T08:58:45.412Z,6.15
2023-03-16T09:01:18.444Z,8.98
2023-03-16T09:03:46.170Z,6.63
2023-03-16T09:06:16.603Z,5.90
2023-03-16T09:08:45.505Z,4.95
2023-03-16T09:11:16.090Z,3.42
2023-03-16T09:13:44.194Z,4.13
2023-03-16T09:16:13.253Z,6.93
2023-03-16T09:18:41.574Z,46.53
2023-03-16T09:21:12.564Z,26.70
2023-03-16T09:23:42.218Z,10.07
2023-03-16T09:28:38.432Z,8.43
2023-03-16T09:31:07.497Z,5.80
2023-03-16T09:33:35.506Z,8.98
2023-03-16T09:36:03.797Z,7.57
2023-03-16T09:38:31.689Z,3.63
2023-03-16T09:41:18.387Z,3.15
2023-03-16T09:44:22.781Z,12.73
2023-03-16T09:46:51.278Z,14.27
2023-03-16T09:49:27.838Z,19.10
2023-03-16T09:52:39.512Z,19.25
2023-03-16T09:55:28.241Z,12.90
2023-03-16T09:57:59.064Z,5.43
2023-03-16T10:00:38.123Z,5.57
2023-03-16T10:03:23.625Z,10.25
2023-03-16T10:06:00.278Z,3.33
2023-03-16T10:08:42.472Z,2.70
2023-03-16T10:11:43.604Z,5.10
2023-03-16T10:14:38.418Z,3.92
2023-03-16T10:17:32.678Z,2.92
2023-03-16T10:20:10.743Z,2.58
2023-03-16T10:22:42.407Z,6.75
2023-03-16T10:25:12.446Z,10.50
2023-03-16T10:27:43.004Z,9.15
2023-03-16T10:30:43.975Z,5.78
2023-03-16T10:33:25.944Z,5.22
2023-03-16T10:36:31.549Z,6.90
2023-03-16T10:39:07.009Z,8.70
2023-03-16T10:41:38.533Z,5.47
2023-03-16T10:44:23.029Z,5.38
2023-03-16T10:47:05.969Z,4.72
2023-03-16T10:49:46.460Z,8.43
2023-03-16T10:52:39.495Z,4.28
2023-03-16T10:55:30.776Z,9.55
2023-03-16T10:57:58.998Z,7.68
2023-03-16T11:00:30.590Z,15.02
2023-03-16T11:02:59.434Z,7.88
2023-03-16T11:05:33.667Z,15.02
2023-03-16T11:08:11.468Z,12.55
2023-03-16T11:10:55.695Z,33.30
2023-03-16T11:13:33.243Z,13.55
2023-03-16T11:16:59.660Z,9.95
2023-03-16T11:19:34.042Z,6.78
2023-03-16T11:22:18.398Z,15.90
2023-03-16T11:25:34.864Z,18.33
2023-03-16T11:28:38.116Z,40.10
2023-03-16T11:31:14.231Z,20.92
2023-03-16T11:33:41.924Z,21.90
2023-03-16T11:36:43.542Z,18.20
2023-03-16T11:39:39.913Z,19.23
2023-03-16T11:42:23.411Z,15.75
2023-03-16T11:45:10.373Z,17.10
2023-03-16T11:48:09.541Z,6.13
2023-03-16T11:51:25.197Z,6.18
2023-03-16T11:55:14.810Z,6.32
2023-03-16T12:01:03.765Z,8.40
2023-03-16T12:04:06.918Z,13.35
2023-03-16T12:07:21.779Z,22.20
2023-03-16T12:10:21.734Z,36.05
2023-03-16T12:13:22.366Z,9.52
2023-03-16T12:15:54.759Z,18.05
2023-03-16T12:18:32.641Z,21.65
2023-03-16T12:21:14.404Z,15.70
2023-03-16T12:23:56.090Z,14.55
2023-03-16T12:26:29.617Z,24.20
2023-03-16T12:29:00.144Z,14.10
2023-03-16T12:31:55.192Z,15.05
2023-03-16T12:34:48.116Z,19.25
2023-03-16T12:37:46.687Z,17.90
2023-03-16T12:40:52.103Z,28.50
2023-03-16T12:43:52.205Z,28.17
2023-03-16T12:46:53.006Z,14.75
2023-03-16T12:49:20.656Z,7.03
2023-03-16T12:52:07.069Z,12.23
2023-03-16T12:54:34.600Z,18.30
2023-03-16T12:57:09.214Z,8.00
2023-03-16T12:59:46.868Z,12.57
2023-03-16T13:02:16.062Z,8.80
2023-03-16T13:04:55.385Z,6.85
2023-03-16T13:07:26.868Z,7.00
2023-03-16T13:10:13.227Z,4.93
2023-03-16T13:12:41.286Z,7.30
2023-03-16T13:15:29.778Z,7.05
2023-03-16T13:18:21.917Z,10.50
2023-03-16T13:21:12.521Z,6.68
2023-03-16T13:23:58.842Z,6.85
2023-03-16T13:26:40.593Z,9.65
2023-03-16T13:29:23.178Z,11.63
2023-03-16T13:31:52.494Z,6.85
2023-03-16T13:34:30.448Z,9.27
2023-03-16T13:37:00.899Z,6.60
2023-03-16T13:39:30.892Z,12.07
2023-03-16T13:42:14.233Z,9.68
2023-03-16T13:44:43.071Z,12.82
2023-03-16T13:47:19.944Z,7.87
2023-03-16T13:49:50.575Z,8.52
2023-03-16T13:52:35.500Z,11.90
2023-03-16T13:55:15.565Z,8.43
2023-03-16T13:57:44.725Z,9.48
2023-03-16T14:00:45.052Z,5.03
2023-03-16T14:03:19.471Z,6.20
2023-03-16T14:05:47.016Z,8.73
2023-03-16T14:08:23.441Z,4.57
2023-03-16T14:10:53.986Z,7.80
2023-03-16T14:13:39.561Z,10.38
2023-03-16T14:16:19.199Z,9.88
2023-03-16T14:21:33.577Z,15.43
2023-03-16T14:24:35.316Z,11.27
2023-03-16T14:27:27.904Z,10.68
2023-03-16T14:30:25.569Z,10.60
2023-03-16T14:33:04.278Z,10.23
2023-03-16T14:35:40.685Z,13.25
2023-03-16T14:38:38.138Z,11.82
2023-03-16T14:41:23.818Z,11.27
2023-03-16T14:43:58.995Z,11.85
2023-03-16T14:46:46.708Z,11.23
2023-03-16T14:49:37.092Z,14.40
2023-03-16T14:52:32.036Z,12.35
2023-03-16T14:55:03.507Z,9.75
2023-03-16T14:57:31.036Z,12.90
2023-03-16T14:59:58.382Z,10.40
2023-03-16T15:02:30.235Z,9.52
2023-03-16T15:04:59.598Z,8.35
2023-03-16T15:07:40.060Z,9.60
2023-03-16T15:10:11.978Z,22.85
2023-03-16T15:12:40.338Z,8.27
2023-03-16T15:15:20.078Z,13.15
2023-03-16T15:17:49.735Z,9.82
2023-03-16T15:22:53.653Z,11.52
2023-03-16T15:25:42.079Z,9.13
2023-03-16T15:28:20.554Z,10.68
2023-03-16T15:30:57.518Z,12.20
2023-03-16T15:33:26.062Z,12.55
2023-03-16T15:35:56.950Z,15.52
2023-03-16T15:38:39.189Z,18.92
2023-03-16T15:41:11.010Z,12.82
2023-03-16T15:43:39.078Z,10.38
2023-03-16T15:46:06.382Z,10.98
2023-03-16T15:48:33.746Z,7.75
2023-03-16T15:51:13.969Z,11.43
2023-03-16T15:53:51.601Z,12.50
2023-03-16T15:56:29.281Z,17.65
2023-03-16T15:59:05.394Z,16.67
2023-03-16T16:01:44.431Z,11.43
2023-03-16T16:04:22.077Z,11.60
2023-03-16T16:06:53.055Z,23.30
2023-03-16T16:09:20.848Z,21.30
2023-03-16T16:11:50.223Z,16.95
2023-03-16T16:16:50.954Z,18.38
2023-03-16T16:19:18.296Z,20.58
2023-03-16T16:21:46.971Z,17.15
2023-03-16T16:24:14.952Z,20.00
2023-03-16T16:26:52.150Z,21.92
2023-03-16T16:29:27.507Z,23.88
2023-03-16T16:31:54.782Z,24.30
2023-03-16T16:34:24.097Z,18.58
2023-03-16T16:36:52.289Z,18.27
2023-03-16T16:39:19.885Z,18.42
2023-03-16T16:41:54.082Z,17.70
2023-03-16T16:44:28.535Z,15.55
2023-03-16T16:46:56.283Z,14.77
2023-03-16T16:49:30.235Z,18.20
2023-03-16T16:51:58.374Z,20.80
2023-03-16T16:54:30.054Z,19.30
2023-03-16T16:56:59.767Z,19.80
2023-03-16T17:02:02.609Z,15.20
2023-03-16T17:04:30.157Z,10.98
2023-03-16T17:07:01.317Z,14.40
2023-03-16T17:09:30.075Z,12.32
2023-03-16T17:12:01.575Z,14.27
2023-03-16T17:14:30.491Z,7.90
2023-03-16T17:17:04.281Z,10.77
2023-03-16T17:19:32.229Z,10.98
2023-03-16T17:21:59.504Z,11.55
2023-03-16T17:24:28.121Z,10.02
2023-03-16T17:26:59.000Z,14.27
2023-03-16T17:29:30.801Z,12.65
2023-03-16T17:32:01.792Z,15.98
2023-03-16T17:34:32.500Z,9.68
2023-03-16T17:37:01.188Z,9.70
2023-03-16T17:39:32.169Z,11.52
2023-03-16T17:42:02.267Z,13.75
2023-03-16T17:44:46.336Z,11.68
2023-03-16T17:47:20.852Z,15.75
2023-03-16T17:49:48.644Z,12.38
2023-03-16T17:52:20.069Z,10.68
2023-03-16T17:54:48.883Z,9.15
2023-03-16T17:57:27.647Z,10.47
2023-03-16T17:59:55.488Z,8.80
2023-03-16T18:02:39.034Z,9.52
2023-03-16T18:05:18.334Z,7.82
2023-03-16T18:07:47.156Z,12.20
2023-03-16T18:10:18.464Z,8.52
2023-03-16T18:12:49.292Z,10.75
2023-03-16T18:15:18.161Z,8.70
2023-03-16T18:17:45.700Z,34.95
2023-03-16T18:20:32.164Z,66.82
2023-03-16T18:23:21.977Z,19.45
2023-03-16T18:28:20.015Z,11.50
2023-03-16T18:30:53.747Z,16.92
2023-03-16T18:33:29.463Z,9.98
2023-03-16T18:36:01.290Z,11.55
2023-03-16T18:38:38.744Z,12.38
2023-03-16T18:41:25.167Z,15.07
2023-03-16T18:43:58.225Z,23.40
2023-03-16T18:46:32.653Z,8.95
2023-03-16T18:49:13.702Z,11.35
2023-03-16T18:51:42.818Z,10.93
2023-03-16T18:54:31.268Z,10.45
2023-03-16T18:56:58.862Z,11.60
2023-03-16T18:59:26.959Z,11.50
2023-03-16T19:01:54.480Z,11.98
2023-03-16T19:04:32.159Z,12.82
2023-03-16T19:06:59.710Z,19.30
2023-03-16T19:09:31.112Z,15.73
2023-03-16T19:11:58.885Z,14.05
2023-03-16T19:14:32.404Z,14.55
2023-03-16T19:17:00.253Z,13.40
2023-03-16T19:19:27.481Z,20.45
2023-03-16T19:22:16.219Z,16.27
2023-03-16T19:24:54.022Z,13.32
2023-03-16T19:27:25.695Z,14.60
2023-03-16T19:29:54.759Z,14.95
2023-03-16T19:32:22.494Z,14.75
2023-03-16T19:34:49.830Z,13.57
2023-03-16T19:37:19.467Z,16.77
2023-03-16T19:42:32.977Z,15.35
2023-03-16T19:45:00.571Z,14.00
2023-03-16T19:47:32.300Z,15.80
2023-03-16T19:50:00.241Z,12.57
2023-03-16T19:52:30.648Z,12.35
2023-03-16T19:54:57.913Z,11.95
2023-03-16T19:57:26.070Z,14.85
2023-03-16T19:59:56.962Z,10.18
2023-03-16T20:02:42.576Z,11.75
2023-03-16T20:05:20.982Z,14.80
2023-03-16T20:07:49.032Z,12.02
2023-03-16T20:10:23.727Z,14.25
2023-03-16T20:13:01.104Z,13.73
2023-03-16T20:15:32.877Z,11.27
2023-03-16T20:18:00.290Z,10.23
2023-03-16T20:20:31.089Z,11.63
2023-03-16T20:22:59.170Z,12.82
2023-03-16T20:25:32.022Z,11.50
2023-03-16T20:28:03.145Z,14.13
2023-03-16T20:30:31.436Z,11.00
2023-03-16T20:32:58.917Z,13.52
2023-03-16T20:35:31.978Z,10.95
2023-03-16T20:37:59.369Z,13.88
2023-03-16T20:40:27.712Z,9.95
2023-03-16T20:42:55.890Z,12.48
2023-03-16T20:45:28.788Z,12.35
2023-03-16T20:47:56.208Z,10.27
2023-03-16T20:50:30.171Z,10.85
2023-03-16T20:52:57.440Z,11.57
2023-03-16T20:55:28.517Z,9.45
2023-03-16T20:57:56.878Z,8.68
2023-03-16T21:00:29.028Z,9.68
2023-03-16T21:02:57.408Z,17.40
2023-03-16T21:05:24.897Z,23.58
2023-03-16T21:07:52.614Z,18.65
2023-03-16T21:10:24.060Z,14.05
2023-03-16T21:12:55.571Z,19.80
2023-03-16T21:15:32.710Z,11.18
2023-03-16T21:18:18.164Z,12.15
2023-03-16T21:20:48.348Z,14.57
2023-03-16T21:23:20.340Z,10.10
2023-03-16T21:26:00.810Z,13.60
2023-03-16T21:28:31.980Z,9.32
2023-03-16T21:31:00.584Z,8.30
2023-03-16T21:33:39.655Z,7.30
2023-03-16T21:36:19.121Z,7.28
2023-03-16T21:38:47.599Z,6.93
2023-03-16T21:41:16.071Z,8.18
2023-03-16T21:43:44.213Z,6.57
2023-03-16T21:46:23.377Z,4.50
2023-03-16T21:48:54.314Z,6.78
2023-03-16T21:51:31.852Z,5.85
2023-03-16T21:54:01.007Z,6.47
2023-03-16T21:56:28.468Z,6.95
2023-03-16T21:58:55.833Z,6.70
2023-03-16T22:01:28.322Z,7.47
2023-03-16T22:04:02.266Z,9.65
2023-03-16T22:06:30.146Z,8.45
2023-03-16T22:09:00.772Z,9.18
2023-03-16T22:11:30.862Z,8.82
2023-03-16T22:13:59.758Z,12.00
2023-03-16T22:16:32.900Z,10.57
2023-03-16T22:19:00.653Z,11.70
2023-03-16T22:21:37.103Z,14.13
2023-03-16T22:24:21.569Z,12.23
2023-03-16T22:26:50.403Z,9.75
2023-03-16T22:29:29.831Z,10.93
2023-03-16T22:32:06.715Z,11.63
2023-03-16T22:34:43.609Z,8.85
2023-03-16T22:37:16.455Z,9.10
2023-03-16T22:39:44.300Z,7.45
2023-03-16T22:42:32.740Z,6.45
2023-03-16T22:45:00.435Z,9.10
2023-03-16T22:47:31.962Z,8.75
2023-03-16T22:49:59.913Z,9.32
2023-03-16T22:52:34.530Z,9.18
2023-03-16T22:55:05.696Z,8.68
2023-03-16T22:57:33.219Z,9.00
2023-03-16T23:00:07.431Z,8.13
2023-03-16T23:02:34.768Z,8.57
2023-03-16T23:05:10.442Z,6.85
2023-03-16T23:07:37.642Z,9.35
2023-03-16T23:10:05.601Z,8.50
2023-03-16T23:12:32.970Z,6.53
2023-03-16T23:15:00.608Z,8.90
2023-03-16T23:17:27.755Z,9.77
2023-03-16T23:19:55.526Z,12.73
2023-03-16T23:22:22.817Z,17.10
2023-03-16T23:24:50.013Z,33.20
2023-03-16T23:27:21.657Z,26.95
2023-03-16T23:29:49.207Z,24.80
2023-03-16T23:32:16.645Z,15.85
2023-03-16T23:34:44.311Z,10.55
2023-03-16T23:37:11.998Z,10.60
2023-03-16T23:39:39.403Z,10.27
2023-03-16T23:42:06.936Z,11.57
2023-03-16T23:44:34.737Z,10.05
2023-03-16T23:47:01.954Z,17.27
2023-03-16T23:49:32.978Z,8.30
2023-03-16T23:52:00.992Z,10.35
2023-03-16T23:54:31.444Z,10.48
2023-03-16T23:56:58.918Z,8.82
2023-03-16T23:59:27.155Z,9.52
